Time;durP1;ratioP1;P1;durP2;ratioP2;P2;SDS_P1;SDS_P2;PMS_P1;PMS_P2;Temp;Humidity;BMP_temperature;BMP_pressure;BME280_temperature;BME280_humidity;BME280_pressure;Samples;Min_cycle;Max_cycle;Signal;HPM_P1;HPM_P2
2022/06/26 00:01:21;;;;;;;5.55;3.55;;;21.80;89.90;;;;;;5014979;28;20475;-76
2022/06/26 00:03:47;;;;;;;6.40;3.47;;;21.70;89.70;;;;;;5015373;28;20036;-77
2022/06/26 00:06:12;;;;;;;6.75;3.63;;;21.80;89.80;;;;;;5015417;28;20045;-77
2022/06/26 00:08:38;;;;;;;7.45;3.60;;;21.80;89.50;;;;;;5015356;28;20101;-77
2022/06/26 00:11:04;;;;;;;6.30;3.50;;;21.80;89.40;;;;;;5015088;28;20395;-77
2022/06/26 00:13:29;;;;;;;6.45;3.40;;;21.80;89.00;;;;;;5015133;28;20036;-77
2022/06/26 00:15:55;;;;;;;5.70;3.60;;;21.80;88.70;;;;;;5015253;28;20052;-77
2022/06/26 00:18:21;;;;;;;6.28;4.03;;;21.80;88.60;;;;;;5015273;28;20029;-77
2022/06/26 00:20:46;;;;;;;8.20;3.78;;;21.80;88.80;;;;;;5014890;28;20018;-76
2022/06/26 00:23:12;;;;;;;12.70;4.00;;;21.80;88.80;;;;;;5015072;28;20037;-77
2022/06/26 00:25:37;;;;;;;9.48;4.32;;;21.70;89.00;;;;;;5013978;28;20022;-76
2022/06/26 00:28:03;;;;;;;8.10;4.72;;;21.70;89.00;;;;;;5014899;28;20536;-76
2022/06/26 00:30:29;;;;;;;7.05;4.38;;;21.70;88.80;;;;;;5014810;28;20038;-77
2022/06/26 00:32:54;;;;;;;6.60;4.43;;;21.70;88.80;;;;;;5014915;28;20028;-77
2022/06/26 00:35:20;;;;;;;9.07;4.80;;;21.70;88.80;;;;;;5014769;28;20060;-76
2022/06/26 00:37:46;;;;;;;9.98;4.47;;;21.60;89.00;;;;;;5014919;28;20030;-76
2022/06/26 00:40:12;;;;;;;8.45;4.90;;;21.60;89.30;;;;;;5014682;28;20022;-77
2022/06/26 00:42:38;;;;;;;6.97;4.40;;;21.60;89.00;;;;;;5014476;28;20038;-77
2022/06/26 00:45:04;;;;;;;7.63;5.30;;;21.70;88.60;;;;;;5014611;28;20022;-77
2022/06/26 00:47:31;;;;;;;9.30;5.28;;;21.70;88.50;;;;;;5014346;28;20026;-77
2022/06/26 00:49:57;;;;;;;8.68;5.13;;;21.70;88.30;;;;;;5014754;28;20072;-77
2022/06/26 00:52:26;;;;;;;5.97;4.32;;;21.70;88.10;;;;;;5014626;28;20097;-76
2022/06/26 00:54:52;;;;;;;12.40;5.22;;;21.70;88.20;;;;;;5014346;28;20026;-77
2022/06/26 00:57:21;;;;;;;8.95;4.85;;;21.70;88.20;;;;;;5013066;28;20423;-77
2022/06/26 00:59:48;;;;;;;7.45;4.55;;;21.60;88.50;;;;;;5014186;28;20593;-76
2022/06/26 01:02:15;;;;;;;6.28;4.72;;;21.60;88.50;;;;;;5014220;28;20506;-76
2022/06/26 01:04:40;;;;;;;7.15;4.47;;;21.50;88.40;;;;;;5014238;28;20045;-76
2022/06/26 01:07:06;;;;;;;7.68;4.53;;;21.50;88.40;;;;;;5014246;28;20053;-76
2022/06/26 01:09:33;;;;;;;6.80;3.92;;;21.50;88.50;;;;;;5014030;28;20030;-76
2022/06/26 01:11:59;;;;;;;9.57;4.90;;;21.50;88.40;;;;;;5013884;28;20030;-77
2022/06/26 01:14:24;;;;;;;6.70;4.82;;;21.50;88.80;;;;;;5014085;28;20025;-76
2022/06/26 01:16:50;;;;;;;13.23;4.93;;;21.50;88.40;;;;;;5014015;28;20104;-77
2022/06/26 01:19:17;;;;;;;6.43;4.43;;;21.50;88.50;;;;;;5014223;28;20022;-77
2022/06/26 01:21:43;;;;;;;6.78;3.90;;;21.50;88.40;;;;;;5013856;28;20030;-77
2022/06/26 01:24:10;;;;;;;9.18;4.95;;;21.50;88.30;;;;;;5013878;28;20029;-77
2022/06/26 01:26:36;;;;;;;10.85;4.45;;;21.50;88.40;;;;;;5013675;28;20065;-77
2022/06/26 01:29:03;;;;;;;9.93;4.30;;;21.40;88.60;;;;;;5013932;28;20355;-77
2022/06/26 01:31:32;;;;;;;8.32;5.03;;;21.40;88.70;;;;;;5013716;28;20487;-76
2022/06/26 01:33:59;;;;;;;10.70;5.20;;;21.40;88.40;;;;;;5013927;28;20104;-77
2022/06/26 01:36:24;;;;;;;8.90;4.10;;;21.40;88.40;;;;;;5013730;28;20044;-77
2022/06/26 01:38:50;;;;;;;7.07;4.45;;;21.40;88.20;;;;;;5013910;28;20502;-77
2022/06/26 01:41:16;;;;;;;6.88;4.60;;;21.40;88.10;;;;;;5014010;28;20107;-77
2022/06/26 01:43:41;;;;;;;6.70;4.05;;;21.40;88.40;;;;;;5013543;28;20046;-77
2022/06/26 01:46:07;;;;;;;7.75;4.55;;;21.30;88.30;;;;;;5013425;28;20033;-77
2022/06/26 01:48:35;;;;;;;7.60;3.67;;;21.30;88.40;;;;;;5013529;28;20378;-77
2022/06/26 01:51:01;;;;;;;7.72;4.82;;;21.40;88.40;;;;;;5013465;28;20468;-76
2022/06/26 01:53:27;;;;;;;11.05;4.40;;;21.30;88.20;;;;;;5013181;28;20033;-76
2022/06/26 01:55:53;;;;;;;7.53;4.72;;;21.30;88.40;;;;;;5013688;28;20053;-77
2022/06/26 01:58:19;;;;;;;7.07;4.05;;;21.30;88.60;;;;;;5013389;28;20049;-76
2022/06/26 02:00:47;;;;;;;8.95;3.95;;;21.20;88.50;;;;;;5013370;28;20471;-77
2022/06/26 02:03:15;;;;;;;7.75;4.18;;;21.20;88.30;;;;;;5013220;28;20026;-77
2022/06/26 02:05:41;;;;;;;6.18;3.58;;;21.20;88.20;;;;;;5013303;28;20148;-77
2022/06/26 02:08:07;;;;;;;7.60;4.28;;;21.20;88.30;;;;;;5013162;28;20483;-77
2022/06/26 02:13:36;;;;;;;6.38;4.22;;;21.20;88.50;;;;;;5013404;28;20037;-77
2022/06/26 02:16:03;;;;;;;6.40;4.03;;;21.20;88.20;;;;;;4995561;28;20030;-77
2022/06/26 02:18:29;;;;;;;6.55;3.92;;;21.20;88.10;;;;;;5013375;28;20046;-74
2022/06/26 02:20:55;;;;;;;7.43;4.10;;;21.20;88.10;;;;;;5013008;28;20033;-75
2022/06/26 02:23:21;;;;;;;7.28;4.45;;;21.20;88.10;;;;;;5012898;28;20030;-77
2022/06/26 02:25:47;;;;;;;6.47;3.80;;;21.10;88.40;;;;;;5013288;28;20056;-77
2022/06/26 02:28:13;;;;;;;10.50;4.25;;;21.20;88.20;;;;;;5012905;28;20479;-77
2022/06/26 02:30:39;;;;;;;7.07;3.92;;;21.20;88.10;;;;;;5013212;28;20360;-75
2022/06/26 02:33:05;;;;;;;8.20;3.83;;;21.10;88.20;;;;;;5013102;28;20025;-73
2022/06/26 02:35:31;;;;;;;7.30;4.63;;;21.10;88.30;;;;;;5013206;28;20029;-75
2022/06/26 02:37:57;;;;;;;9.65;4.57;;;21.10;88.40;;;;;;5012675;28;20026;-75
2022/06/26 02:40:25;;;;;;;7.72;4.28;;;21.20;88.40;;;;;;5012833;28;20030;-76
2022/06/26 02:42:51;;;;;;;6.63;4.25;;;21.10;88.60;;;;;;5012718;28;20042;-74
2022/06/26 02:45:17;;;;;;;9.52;4.15;;;21.10;88.70;;;;;;5013152;28;20022;-75
2022/06/26 02:47:43;;;;;;;4.80;4.25;;;21.10;88.80;;;;;;5013288;28;20026;-77
2022/06/26 02:50:09;;;;;;;7.68;4.50;;;21.10;88.70;;;;;;5016788;28;20026;-74
2022/06/26 02:52:36;;;;;;;8.48;4.60;;;21.00;88.60;;;;;;5016316;28;20029;-76
2022/06/26 02:55:03;;;;;;;13.18;5.07;;;21.00;88.80;;;;;;5015739;28;20022;-77
2022/06/26 02:57:29;;;;;;;13.10;5.07;;;21.00;89.00;;;;;;5016459;28;20026;-74
2022/06/26 02:59:54;;;;;;;7.82;5.25;;;21.00;89.00;;;;;;5016723;28;20033;-75
2022/06/26 03:02:20;;;;;;;7.40;4.80;;;21.00;88.90;;;;;;5016619;28;20105;-76
2022/06/26 03:04:46;;;;;;;9.98;4.85;;;21.00;89.00;;;;;;5016494;28;20364;-76
2022/06/26 03:07:12;;;;;;;7.90;4.82;;;21.00;89.00;;;;;;5016388;28;20026;-74
2022/06/26 03:09:37;;;;;;;6.28;4.22;;;20.90;88.80;;;;;;5016154;28;20026;-73
2022/06/26 03:12:04;;;;;;;8.30;4.43;;;20.90;89.00;;;;;;5016444;28;20368;-76
2022/06/26 03:14:30;;;;;;;6.63;4.13;;;20.90;89.10;;;;;;5016454;28;20591;-76
2022/06/26 03:16:56;;;;;;;6.65;4.38;;;20.90;89.20;;;;;;5016360;28;20104;-76
2022/06/26 03:19:22;;;;;;;5.70;4.40;;;20.90;89.20;;;;;;5016053;28;20103;-77
2022/06/26 03:21:47;;;;;;;8.98;4.70;;;20.80;89.30;;;;;;5015814;28;20494;-77
2022/06/26 03:24:13;;;;;;;10.20;5.55;;;20.90;89.20;;;;;;5015852;28;20021;-76
2022/06/26 03:26:39;;;;;;;7.07;4.95;;;20.80;89.20;;;;;;5016256;28;20085;-77
2022/06/26 03:29:09;;;;;;;7.32;4.13;;;20.80;89.30;;;;;;5016043;28;20454;-76
2022/06/26 03:31:35;;;;;;;9.88;4.45;;;20.80;89.50;;;;;;4998572;28;20041;-77
2022/06/26 03:34:01;;;;;;;9.55;4.93;;;20.80;89.50;;;;;;5016018;28;20537;-76
2022/06/26 03:36:28;;;;;;;8.50;4.82;;;20.80;89.30;;;;;;5015666;28;20084;-76
2022/06/26 03:38:54;;;;;;;6.43;4.55;;;20.80;89.20;;;;;;5016015;28;20022;-77
2022/06/26 03:41:20;;;;;;;6.70;4.80;;;20.80;89.20;;;;;;5015862;28;20030;-74
2022/06/26 03:43:45;;;;;;;8.77;5.10;;;20.80;89.30;;;;;;5015880;28;20136;-73
2022/06/26 03:46:11;;;;;;;8.00;4.38;;;20.80;89.50;;;;;;4997995;28;20070;-74
2022/06/26 03:48:37;;;;;;;9.43;4.93;;;20.80;89.50;;;;;;4996072;28;20021;-74
2022/06/26 03:51:04;;;;;;;7.30;5.03;;;20.70;89.40;;;;;;5013503;28;20490;-73
2022/06/26 03:53:30;;;;;;;9.55;5.03;;;20.80;89.50;;;;;;5015444;28;20038;-74
2022/06/26 03:55:55;;;;;;;5.88;4.05;;;20.80;89.50;;;;;;5013523;28;20607;-76
2022/06/26 03:58:21;;;;;;;9.13;4.78;;;20.80;89.20;;;;;;5015360;28;20113;-74
2022/06/26 04:00:47;;;;;;;12.00;4.95;;;20.80;89.00;;;;;;5014091;28;20022;-73
2022/06/26 04:03:12;;;;;;;9.82;4.88;;;20.70;89.40;;;;;;5015581;28;20475;-73
2022/06/26 04:05:38;;;;;;;8.52;4.55;;;20.70;89.50;;;;;;5015138;28;20026;-74
2022/06/26 04:08:05;;;;;;;10.05;4.90;;;20.60;89.70;;;;;;5015661;28;20026;-73
2022/06/26 04:10:31;;;;;;;8.35;4.80;;;20.60;89.60;;;;;;5015520;28;20045;-73
2022/06/26 04:13:01;;;;;;;6.47;4.63;;;20.60;89.60;;;;;;5015468;28;20029;-77
2022/06/26 04:15:28;;;;;;;5.50;4.40;;;20.60;89.50;;;;;;5015185;28;20025;-77
2022/06/26 04:17:54;;;;;;;7.55;4.45;;;20.70;89.40;;;;;;5015098;28;20022;-76
2022/06/26 04:20:20;;;;;;;7.35;4.75;;;20.60;89.50;;;;;;5014924;28;20022;-76
2022/06/26 04:23:09;;;;;;;6.05;4.28;;;20.60;89.40;;;;;;5015052;28;20116;-76
2022/06/26 04:25:37;;;;;;;11.90;4.68;;;20.60;89.70;;;;;;5014778;28;20025;-77
2022/06/26 04:28:03;;;;;;;11.43;4.63;;;20.70;89.40;;;;;;5015012;28;20026;-77
2022/06/26 04:30:29;;;;;;;6.13;4.22;;;20.70;89.30;;;;;;5014737;28;20026;-76
2022/06/26 04:32:54;;;;;;;6.45;4.65;;;20.70;89.50;;;;;;5013157;28;20018;-77
2022/06/26 04:35:20;;;;;;;6.68;4.47;;;20.60;90.20;;;;;;4997444;28;20026;-76
2022/06/26 04:37:49;;;;;;;10.10;4.30;;;20.60;90.00;;;;;;5014937;28;20108;-77
2022/06/26 04:40:15;;;;;;;8.18;4.72;;;20.70;90.10;;;;;;5008568;28;20033;-76
2022/06/26 04:42:42;;;;;;;5.35;3.90;;;20.70;90.00;;;;;;5012792;28;20387;-76
2022/06/26 04:45:09;;;;;;;8.93;4.25;;;20.70;90.10;;;;;;5014830;28;20475;-74
2022/06/26 04:47:35;;;;;;;8.73;4.43;;;20.60;90.10;;;;;;5014946;28;20028;-73
2022/06/26 04:50:03;;;;;;;7.45;4.20;;;20.60;90.20;;;;;;5014860;28;20100;-77
2022/06/26 04:52:28;;;;;;;11.57;4.63;;;20.60;90.20;;;;;;5014672;28;20033;-73
2022/06/26 04:54:54;;;;;;;9.35;4.40;;;20.70;90.10;;;;;;5014388;28;20026;-73
2022/06/26 04:57:19;;;;;;;9.40;4.20;;;20.60;90.20;;;;;;5014616;28;20080;-76
2022/06/26 04:59:45;;;;;;;9.18;4.50;;;20.60;90.20;;;;;;5014627;28;20029;-76
2022/06/26 05:02:11;;;;;;;7.75;4.15;;;20.60;90.30;;;;;;5013036;28;20037;-74
2022/06/26 05:04:37;;;;;;;8.73;3.97;;;20.70;90.20;;;;;;5002785;28;20073;-75
2022/06/26 05:07:03;;;;;;;6.78;4.05;;;20.70;90.20;;;;;;5005159;28;20030;-77
2022/06/26 05:09:29;;;;;;;7.65;3.83;;;20.70;90.20;;;;;;5009189;28;20033;-77
2022/06/26 05:11:54;;;;;;;8.05;4.30;;;20.70;90.30;;;;;;5017679;28;20029;-77
2022/06/26 05:14:20;;;;;;;9.02;4.20;;;20.70;90.20;;;;;;4995792;28;20472;-74
2022/06/26 05:16:46;;;;;;;6.95;3.72;;;20.70;90.30;;;;;;5002681;28;20366;-73
2022/06/26 05:19:12;;;;;;;12.32;4.40;;;20.70;90.30;;;;;;5013529;28;20113;-74
2022/06/26 05:21:37;;;;;;;7.50;3.90;;;20.70;90.30;;;;;;5014183;28;20112;-73
2022/06/26 05:24:04;;;;;;;5.07;3.90;;;20.70;90.40;;;;;;4999482;28;20030;-74
2022/06/26 05:26:30;;;;;;;7.43;3.65;;;20.70;90.40;;;;;;5012430;28;20509;-74
2022/06/26 05:28:55;;;;;;;9.40;3.78;;;20.70;90.40;;;;;;5013561;28;20030;-73
2022/06/26 05:31:21;;;;;;;8.15;4.28;;;20.80;90.40;;;;;;5013076;28;20029;-74
2022/06/26 05:33:47;;;;;;;4.47;3.83;;;20.70;90.40;;;;;;5013013;28;20030;-73
2022/06/26 05:36:13;;;;;;;7.18;4.07;;;20.70;90.50;;;;;;5013105;28;20030;-74
2022/06/26 05:38:39;;;;;;;5.55;3.58;;;20.80;90.40;;;;;;5013150;28;20053;-73
2022/06/26 05:41:06;;;;;;;8.85;4.05;;;20.80;90.50;;;;;;5004794;28;20033;-77
2022/06/26 05:43:31;;;;;;;5.90;3.70;;;20.80;90.60;;;;;;5012358;28;20034;-74
2022/06/26 05:45:58;;;;;;;8.60;3.70;;;20.80;90.70;;;;;;5016254;28;20103;-74
2022/06/26 05:48:24;;;;;;;7.53;3.78;;;20.80;90.60;;;;;;5029442;28;20038;-73
2022/06/26 05:50:50;;;;;;;9.45;4.22;;;20.80;90.60;;;;;;5011480;28;20025;-73
2022/06/26 05:53:17;;;;;;;5.18;3.83;;;20.80;90.60;;;;;;5026816;28;20540;-73
2022/06/26 05:55:42;;;;;;;4.53;3.08;;;20.80;90.70;;;;;;5004118;28;20086;-74
2022/06/26 05:58:08;;;;;;;4.93;2.97;;;20.80;90.90;;;;;;4996016;28;20034;-74
2022/06/26 06:00:34;;;;;;;5.40;2.88;;;20.90;91.10;;;;;;5011280;28;20018;-77
2022/06/26 06:03:00;;;;;;;10.35;3.72;;;20.90;91.40;;;;;;5012925;28;20368;-74
2022/06/26 06:05:26;;;;;;;6.85;3.17;;;20.90;91.40;;;;;;5013028;28;20017;-75
2022/06/26 06:07:53;;;;;;;8.52;3.45;;;20.90;91.60;;;;;;5013098;28;20026;-75
2022/06/26 06:10:19;;;;;;;5.20;3.50;;;20.90;91.80;;;;;;5012761;28;20034;-75
2022/06/26 06:12:46;;;;;;;6.45;3.03;;;21.00;91.80;;;;;;5012810;28;20036;-74
2022/06/26 06:15:12;;;;;;;9.23;3.65;;;21.00;91.80;;;;;;5011820;28;20400;-74
2022/06/26 06:17:41;;;;;;;8.00;3.55;;;21.00;91.60;;;;;;5012278;28;20388;-74
2022/06/26 06:20:12;;;;;;;5.47;2.72;;;21.00;91.30;;;;;;5012756;28;20025;-78
2022/06/26 06:22:43;;;;;;;7.60;3.37;;;21.00;91.10;;;;;;5012283;28;20034;-76
2022/06/26 06:25:10;;;;;;;3.80;2.25;;;21.10;91.00;;;;;;5016176;28;20041;-74
2022/06/26 06:27:36;;;;;;;4.45;3.28;;;21.20;91.10;;;;;;5004039;28;20026;-74
2022/06/26 06:30:04;;;;;;;6.20;2.17;;;21.20;91.10;;;;;;5016491;28;20497;-74
2022/06/26 06:32:30;;;;;;;5.90;3.28;;;21.20;91.30;;;;;;4998745;28;20049;-74
2022/06/26 06:34:56;;;;;;;7.07;3.25;;;21.30;91.10;;;;;;5015923;28;20467;-74
2022/06/26 06:37:21;;;;;;;5.28;3.10;;;21.30;90.80;;;;;;5009474;28;20030;-75
2022/06/26 06:39:47;;;;;;;5.72;2.95;;;21.30;90.50;;;;;;5015053;28;20030;-74
2022/06/26 06:42:13;;;;;;;8.25;3.45;;;21.30;90.50;;;;;;5016312;28;20525;-74
2022/06/26 06:44:38;;;;;;;7.25;3.58;;;21.40;90.40;;;;;;5015860;28;20025;-74
2022/06/26 06:47:06;;;;;;;8.15;3.00;;;21.40;90.20;;;;;;5016200;28;20084;-74
2022/06/26 06:49:31;;;;;;;6.45;3.25;;;21.40;90.10;;;;;;5016147;28;20022;-75
2022/06/26 06:51:57;;;;;;;4.65;3.35;;;21.50;90.10;;;;;;5013187;28;20084;-74
2022/06/26 06:54:23;;;;;;;6.13;3.20;;;21.50;89.90;;;;;;5027020;28;20058;-75
2022/06/26 06:56:49;;;;;;;5.20;3.55;;;21.40;89.90;;;;;;5015418;28;20438;-75
2022/06/26 06:59:15;;;;;;;5.90;2.95;;;21.50;89.80;;;;;;5013220;28;20030;-75
2022/06/26 07:01:40;;;;;;;5.47;3.20;;;21.50;89.70;;;;;;5017846;28;20072;-75
2022/06/26 07:04:07;;;;;;;5.68;2.85;;;21.50;89.60;;;;;;5015615;28;20026;-76
2022/06/26 07:06:33;;;;;;;11.45;3.22;;;21.50;89.80;;;;;;5017465;28;20037;-75
2022/06/26 07:08:59;;;;;;;7.78;2.90;;;21.50;89.90;;;;;;5025508;28;20099;-74
2022/06/26 07:11:24;;;;;;;7.35;3.08;;;21.60;90.00;;;;;;5013072;28;20029;-75
2022/06/26 07:13:50;;;;;;;7.35;2.97;;;21.50;90.00;;;;;;4999904;28;20022;-76
2022/06/26 07:16:16;;;;;;;5.15;3.28;;;21.50;90.20;;;;;;5002174;28;20029;-76
2022/06/26 07:18:41;;;;;;;5.25;2.88;;;21.50;90.40;;;;;;4993467;28;20524;-75
2022/06/26 07:21:07;;;;;;;5.47;2.72;;;21.50;90.40;;;;;;5016517;28;20075;-76
2022/06/26 07:23:33;;;;;;;6.22;2.70;;;21.60;90.90;;;;;;5015123;28;20382;-78
2022/06/26 07:25:58;;;;;;;3.47;1.80;;;21.60;91.10;;;;;;5014021;28;20032;-77
2022/06/26 07:28:24;;;;;;;2.95;1.65;;;21.50;91.40;;;;;;5012682;28;20026;-76
2022/06/26 07:30:50;;;;;;;4.43;1.92;;;21.50;91.50;;;;;;5015362;28;20037;-75
2022/06/26 07:36:00;;;;;;;7.75;2.72;;;21.60;91.20;;;;;;5010293;28;20498;-76
2022/06/26 07:38:25;;;;;;;3.58;1.80;;;21.60;91.00;;;;;;5013849;28;20026;-77
2022/06/26 07:40:51;;;;;;;6.18;1.95;;;21.60;91.10;;;;;;5010650;28;20603;-77
2022/06/26 07:43:17;;;;;;;4.10;1.88;;;21.70;91.10;;;;;;5012940;28;20042;-78
2022/06/26 07:45:43;;;;;;;2.33;1.35;;;21.70;91.00;;;;;;5015512;28;20028;-79
2022/06/26 07:48:08;;;;;;;5.65;2.00;;;21.70;91.30;;;;;;5012336;28;21135;-77
2022/06/26 07:50:34;;;;;;;4.63;1.85;;;21.70;91.00;;;;;;5010001;28;20028;-80
2022/06/26 07:52:59;;;;;;;10.45;2.60;;;21.70;90.80;;;;;;5003167;28;20034;-74
2022/06/26 07:55:25;;;;;;;7.22;2.25;;;21.80;90.70;;;;;;5007595;28;20029;-76
2022/06/26 07:57:51;;;;;;;5.68;2.40;;;21.80;90.50;;;;;;5010283;28;20455;-73
2022/06/26 08:00:16;;;;;;;7.15;2.40;;;21.80;90.40;;;;;;4998469;28;20041;-75
2022/06/26 08:02:42;;;;;;;6.05;2.08;;;21.90;90.30;;;;;;5012026;28;20033;-75
2022/06/26 08:05:08;;;;;;;5.78;2.15;;;21.80;90.30;;;;;;5002848;28;20026;-76
2022/06/26 08:07:33;;;;;;;6.15;2.17;;;21.90;90.40;;;;;;5008556;28;20032;-77
2022/06/26 08:09:59;;;;;;;7.07;1.85;;;21.90;90.30;;;;;;5013236;28;20382;-77
2022/06/26 08:12:25;;;;;;;9.23;1.92;;;21.90;90.30;;;;;;5013860;28;20045;-77
2022/06/26 08:14:50;;;;;;;4.63;2.00;;;21.90;90.20;;;;;;5005042;28;20019;-80
2022/06/26 08:17:16;;;;;;;8.07;3.20;;;22.00;90.10;;;;;;5005849;28;20475;-79
2022/06/26 08:19:41;;;;;;;4.15;2.30;;;22.00;89.50;;;;;;5011009;28;20100;-80
2022/06/26 08:22:07;;;;;;;8.95;2.60;;;22.10;89.70;;;;;;5014267;28;20100;-74
2022/06/26 08:24:33;;;;;;;9.07;2.22;;;22.10;90.00;;;;;;5005790;28;20053;-75
2022/06/26 08:27:00;;;;;;;6.78;2.92;;;22.10;89.70;;;;;;5006505;28;20513;-77
2022/06/26 08:29:26;;;;;;;3.47;1.98;;;22.10;89.70;;;;;;5011693;28;20026;-74
2022/06/26 08:31:52;;;;;;;6.53;1.55;;;22.10;90.00;;;;;;4995494;28;20030;-78
2022/06/26 08:34:18;;;;;;;5.53;2.28;;;22.10;90.10;;;;;;4995067;28;20101;-79
2022/06/26 08:36:44;;;;;;;6.78;2.45;;;22.10;90.20;;;;;;5011683;28;20033;-79
2022/06/26 08:39:10;;;;;;;4.05;2.35;;;22.20;89.80;;;;;;5010098;28;20049;-78
2022/06/26 08:41:40;;;;;;;2.67;1.73;;;22.20;89.80;;;;;;5011885;28;20360;-78
2022/06/26 08:44:07;;;;;;;6.53;2.10;;;22.20;89.70;;;;;;5007782;28;20424;-77
2022/06/26 08:46:36;;;;;;;10.07;2.50;;;22.20;89.70;;;;;;5009260;28;20026;-75
2022/06/26 08:49:10;;;;;;;5.28;1.92;;;22.30;89.40;;;;;;5010569;28;20040;-73
2022/06/26 08:51:40;;;;;;;5.03;1.83;;;22.20;89.60;;;;;;5008908;28;20029;-79
2022/06/26 08:54:06;;;;;;;7.10;2.25;;;22.30;89.60;;;;;;4999733;28;20049;-77
2022/06/26 08:56:33;;;;;;;4.68;2.20;;;22.30;89.20;;;;;;5011867;28;20031;-75
2022/06/26 08:58:59;;;;;;;5.40;3.00;;;22.30;89.20;;;;;;5006814;28;20026;-72
2022/06/26 09:01:25;;;;;;;4.40;2.40;;;22.40;88.70;;;;;;5009233;28;20040;-79
2022/06/26 09:03:51;;;;;;;3.42;2.30;;;22.30;89.00;;;;;;5011097;28;20033;-78
2022/06/26 09:06:16;;;;;;;6.15;2.90;;;22.40;89.00;;;;;;5012112;28;20033;-76
2022/06/26 09:08:44;;;;;;;5.05;2.53;;;22.40;87.80;;;;;;5010431;28;20025;-78
2022/06/26 09:11:10;;;;;;;5.38;2.17;;;22.40;87.90;;;;;;5009264;28;20040;-78
2022/06/26 09:13:43;;;;;;;5.43;1.63;;;22.50;88.60;;;;;;5010324;28;20030;-76
2022/06/26 09:16:09;;;;;;;;;;;22.40;88.60;;;;;;5008256;28;20128;-74
2022/06/26 09:18:36;;;;;;;6.25;2.60;;;22.50;88.00;;;;;;5007618;28;19939;-75
2022/06/26 09:21:04;;;;;;;8.52;2.03;;;22.60;87.10;;;;;;5006647;28;20030;-75
2022/06/26 09:23:34;;;;;;;9.77;3.00;;;22.60;87.70;;;;;;5008587;28;20057;-75
2022/06/26 09:26:00;;;;;;;7.32;2.50;;;22.60;87.10;;;;;;5005888;28;20050;-82
2022/06/26 09:28:27;;;;;;;8.43;2.22;;;22.60;87.00;;;;;;4980567;28;20029;-78
2022/06/26 09:30:56;;;;;;;8.68;2.42;;;22.60;87.40;;;;;;5005571;28;20026;-74
2022/06/26 09:33:26;;;;;;;9.95;1.77;;;22.60;87.80;;;;;;5006364;28;20026;-77
2022/06/26 09:35:53;;;;;;;6.70;2.00;;;22.60;87.80;;;;;;5009393;28;20061;-78
2022/06/26 09:38:36;;;;;;;5.80;2.60;;;22.60;87.80;;;;;;5010519;28;20065;-77
2022/06/26 09:41:05;;;;;;;9.40;2.58;;;22.70;86.70;;;;;;5010155;28;20341;-78
2022/06/26 09:43:41;;;;;;;13.93;2.92;;;22.80;86.90;;;;;;4990358;28;20092;-78
2022/06/26 09:46:10;;;;;;;12.27;3.03;;;22.70;87.40;;;;;;5006128;28;20014;-78
2022/06/26 09:48:36;;;;;;;14.73;3.13;;;22.80;87.20;;;;;;5010018;28;20029;-78
2022/06/26 09:51:03;;;;;;;12.98;2.75;;;22.80;87.00;;;;;;5006433;28;20030;-79
2022/06/26 09:53:30;;;;;;;9.65;2.75;;;22.80;87.40;;;;;;5007428;28;20069;-78
2022/06/26 09:55:58;;;;;;;18.27;2.90;;;22.90;87.00;;;;;;5006326;28;20026;-76
2022/06/26 09:58:25;;;;;;;11.57;2.50;;;22.90;87.10;;;;;;5003749;28;20049;-77
2022/06/26 10:06:27;;;;;;;13.57;3.10;;;22.90;88.90;;;;;;5015077;28;20502;-76
2022/06/26 10:09:05;;;;;;;12.48;3.67;;;22.90;91.00;;;;;;5005040;28;20030;-76
2022/06/26 10:11:32;;;;;;;7.38;3.00;;;22.90;91.40;;;;;;5006302;28;20095;-79
2022/06/26 10:14:20;;;;;;;6.85;2.90;;;23.00;90.70;;;;;;5008046;28;20026;-78
2022/06/26 10:17:37;;;;;;;9.75;3.63;;;23.00;88.60;;;;;;5007498;28;20310;-77
2022/06/26 10:20:09;;;;;;;6.38;2.33;;;23.00;90.50;;;;;;4972864;28;20037;-77
2022/06/26 10:22:41;;;;;;;;;;;23.00;86.10;;;;;;5007040;28;20030;-76
2022/06/26 10:25:19;;;;;;;10.18;4.25;;;23.10;91.70;;;;;;5004228;28;19940;-76
2022/06/26 10:27:45;;;;;;;12.55;4.20;;;23.00;90.50;;;;;;5005075;28;20514;-78
2022/06/26 10:30:13;;;;;;;8.68;3.72;;;23.10;90.50;;;;;;5009443;28;20052;-79
2022/06/26 10:32:40;;;;;;;11.02;5.32;;;23.10;90.90;;;;;;5005471;28;21227;-78
2022/06/26 10:35:06;;;;;;;13.07;7.50;;;23.10;91.70;;;;;;5008592;28;20459;-78
2022/06/26 10:37:47;;;;;;;10.95;6.40;;;23.10;91.80;;;;;;4995117;28;20116;-78
2022/06/26 10:43:11;;;;;;;11.23;6.43;;;23.20;90.10;;;;;;4991363;28;20084;-79
2022/06/26 10:45:38;;;;;;;10.05;6.38;;;23.20;89.70;;;;;;5007657;28;20025;-77
2022/06/26 10:48:10;;;;;;;10.50;5.30;;;23.20;89.10;;;;;;5010157;28;20026;-79
2022/06/26 10:50:39;;;;;;;8.10;3.30;;;23.20;87.80;;;;;;5004389;28;20511;-78
2022/06/26 10:53:25;;;;;;;6.57;3.60;;;23.20;86.00;;;;;;4985826;28;20022;-75
2022/06/26 10:56:05;;;;;;;8.30;2.63;;;23.20;84.90;;;;;;5008084;28;20041;-77
2022/06/26 10:58:35;;;;;;;5.57;2.78;;;23.20;82.40;;;;;;5004201;28;20108;-79
2022/06/26 11:01:06;;;;;;;6.43;2.10;;;23.20;82.10;;;;;;5003176;28;20030;-78
2022/06/26 11:03:33;;;;;;;3.45;1.73;;;23.20;80.90;;;;;;5010396;28;20089;-79
2022/06/26 11:06:04;;;;;;;5.20;1.85;;;23.20;79.80;;;;;;5011398;28;20125;-74
2022/06/26 11:08:32;;;;;;;7.82;2.10;;;23.20;79.90;;;;;;5011624;28;20387;-78
2022/06/26 11:11:08;;;;;;;8.50;1.58;;;23.20;79.60;;;;;;5014698;28;20025;-73
2022/06/26 11:13:36;;;;;;;6.88;1.80;;;23.20;79.10;;;;;;5015232;28;20030;-74
2022/06/26 11:16:03;;;;;;;4.63;1.63;;;23.20;78.70;;;;;;5015178;28;20057;-71
2022/06/26 11:18:34;;;;;;;4.07;1.85;;;23.20;78.90;;;;;;5015112;28;20022;-72
2022/06/26 11:21:01;;;;;;;6.57;1.92;;;23.30;79.60;;;;;;5013804;28;20030;-73
2022/06/26 11:23:36;;;;;;;3.95;1.70;;;23.30;79.20;;;;;;5016137;28;20048;-72
2022/06/26 11:26:11;;;;;;;9.15;2.05;;;23.30;77.60;;;;;;5019452;28;20479;-72
2022/06/26 11:28:42;;;;;;;4.82;2.00;;;23.30;78.90;;;;;;5015017;28;20117;-72
2022/06/26 11:31:11;;;;;;;8.57;2.20;;;23.30;80.00;;;;;;4997631;28;20029;-72
2022/06/26 11:33:39;;;;;;;5.93;2.03;;;23.30;80.30;;;;;;5013661;28;20036;-72
2022/06/26 11:36:15;;;;;;;8.07;2.28;;;23.30;80.70;;;;;;4990102;28;20029;-73
2022/06/26 11:38:48;;;;;;;6.72;2.15;;;23.40;80.60;;;;;;5014519;28;20029;-72
2022/06/26 11:41:14;;;;;;;8.23;2.17;;;23.40;81.30;;;;;;5013806;28;20029;-72
2022/06/26 11:43:55;;;;;;;4.57;2.05;;;23.30;81.50;;;;;;4997000;28;20121;-74
2022/06/26 11:46:22;;;;;;;6.55;2.00;;;23.40;81.10;;;;;;4996556;28;20022;-73
2022/06/26 11:48:52;;;;;;;6.78;2.45;;;23.40;80.50;;;;;;5013319;28;20030;-72
2022/06/26 11:51:19;;;;;;;6.97;2.40;;;23.50;81.10;;;;;;5014783;28;20073;-73
2022/06/26 11:53:47;;;;;;;4.88;1.90;;;23.50;80.90;;;;;;5011913;28;20026;-72
2022/06/26 11:56:26;;;;;;;3.60;1.75;;;23.50;77.20;;;;;;4995719;28;20022;-78
2022/06/26 11:58:53;;;;;;;7.22;2.10;;;23.50;79.70;;;;;;5012491;28;20089;-78
2022/06/26 12:01:19;;;;;;;8.30;1.95;;;23.50;78.90;;;;;;5010713;28;20025;-77
2022/06/26 12:03:48;;;;;;;5.55;1.60;;;23.50;80.80;;;;;;5013094;28;20025;-80
2022/06/26 12:06:36;;;;;;;5.38;1.98;;;23.50;80.40;;;;;;5014603;28;20026;-79
2022/06/26 12:09:19;;;;;;;3.55;1.55;;;23.60;80.50;;;;;;5011190;28;20080;-78
2022/06/26 12:11:46;;;;;;;4.32;1.27;;;23.60;79.80;;;;;;5012735;28;20470;-76
2022/06/26 12:14:15;;;;;;;5.15;1.23;;;23.60;78.70;;;;;;5013207;28;20030;-78
2022/06/26 12:17:04;;;;;;;5.72;1.55;;;23.60;78.40;;;;;;5012911;28;20072;-79
2022/06/26 12:19:38;;;;;;;4.75;1.35;;;23.60;78.80;;;;;;5013159;28;20048;-78
2022/06/26 12:22:03;;;;;;;3.95;1.23;;;23.60;78.20;;;;;;5010869;28;20372;-79
2022/06/26 12:24:29;;;;;;;3.90;1.38;;;23.60;78.60;;;;;;5012850;28;20523;-78
2022/06/26 12:26:57;;;;;;;4.68;1.38;;;23.60;76.70;;;;;;5012936;28;20022;-79
2022/06/26 12:29:24;;;;;;;4.97;1.38;;;23.60;77.70;;;;;;5012996;28;20398;-78
2022/06/26 12:31:50;;;;;;;7.90;1.55;;;23.70;77.20;;;;;;5006401;28;20122;-79
2022/06/26 12:34:16;;;;;;;4.28;1.30;;;23.70;77.70;;;;;;5009130;28;20108;-76
2022/06/26 12:36:41;;;;;;;4.80;1.15;;;23.70;77.80;;;;;;5012096;28;20328;-76
2022/06/26 12:39:09;;;;;;;3.58;1.48;;;23.70;78.30;;;;;;5012596;28;20361;-77
2022/06/26 12:41:35;;;;;;;6.57;1.88;;;23.70;78.70;;;;;;5010350;28;20045;-75
2022/06/26 12:44:04;;;;;;;3.03;1.20;;;23.70;77.90;;;;;;5008466;28;20541;-77
2022/06/26 12:46:31;;;;;;;4.68;1.30;;;23.80;77.60;;;;;;5010174;28;20048;-75
2022/06/26 12:48:58;;;;;;;4.57;1.25;;;23.80;77.40;;;;;;5011686;28;20030;-77
2022/06/26 12:51:24;;;;;;;5.18;1.25;;;23.80;77.50;;;;;;5011746;28;20068;-77
2022/06/26 12:53:50;;;;;;;9.63;1.33;;;23.80;77.80;;;;;;5010998;28;20030;-78
2022/06/26 12:56:17;;;;;;;2.33;1.30;;;23.80;77.50;;;;;;5012032;28;20051;-78
2022/06/26 12:58:42;;;;;;;4.43;1.08;;;23.80;75.30;;;;;;5012142;28;20415;-73
2022/06/26 13:01:09;;;;;;;3.10;1.05;;;23.80;73.70;;;;;;5009204;28;20029;-76